KAKH/AKH METAR and TAF weather

Enter ICAO airport designator
Station Type Date Time Source
KAKH METAR 2018/07/21 12:54 UTC NOAA

KAKH 211254Z AUTO 00000KT 10SM SCT090 24/18 A2993 RMK AO2 SLP128 T02390183


Station Type Date Time Source
KAKH Decoded METAR 2018/07/21 12:54 UTC NOAA

GASTONIA MUNICIPAL AIRPORT, NC, United States (KAKH) 35-12N 81-09W 243M
Jul 21, 2018 - 08:54 AM EDT / 2018.07.21 1254 UTC
Wind: Calm:0
Visibility: 10 mile(s):0
Sky conditions: partly cloudy
Temperature: 75.0 F (23.9 C)
Dew Point: 64.9 F (18.3 C)
Relative Humidity: 70%
Pressure (altimeter): 29.93 in. Hg (1013 hPa)
ob: KAKH 211254Z AUTO 00000KT 10SM SCT090 24/18 A2993 RMK AO2 SLP128 T02390183
cycle: 13

Station Type Date Time Source
KAKH TAF UTC NOAA

Error!


Example: see airport list